»·PEaware :: N8427G KAVX-KSAN

N8427G :: KAVX-KSAN

FLIGHT INFORMATION

Flight Status: Arrived
Operator: Privately registered:
United States
More flights under this callsign
Pilot: Walter A. (18941)
Aircraft: PIPER PA-28 CHEROKEE ARCHER
(PA28)
More flights by this aircraft type
Origin: KAVX Catalina
United States
Destination: KSAN San Diego Intl-Lindbergh
United States
More flights between these airports :: More routes between these airports
Route: SXC V208 OCN V23 MZB
File this flight plan on PilotEdge
Remarks: TEC route CSTP56
Altitude:
(Current/Filed)
5,000ft
Speed:
(Current/Filed)
110kts
Departed: 15-Nov-20 10:38 PM
Arrived: 15-Nov-20 11:42 PM
Distance/Time
Traveled:
74nm/1:03
Distance/Time
To Go:
Arrived

Flight Plot

Page will automatically refresh every two minutes.


Map Options




Map Legend


Flown Route
Filed Route
Departure Airport
Arrival Airport
Navaid (VOR, NDB)
Fix

Horizontal Profiles

Position Reports

Time Latitude Longitude Heading Altitude Ground
Speed
15-Nov-20 22:24 33.402761 -118.419588 54 1555ft 0kts
15-Nov-20 22:25 33.402763 -118.419585 54 1555ft 0kts
15-Nov-20 22:26 33.402763 -118.419585 54 1555ft 0kts
15-Nov-20 22:27 33.402763 -118.419585 54 1555ft 0kts
15-Nov-20 22:28 33.402763 -118.419585 54 1555ft 0kts
15-Nov-20 22:30 33.402763 -118.419585 54 1555ft 0kts
15-Nov-20 22:30 33.402763 -118.419585 54 1555ft 0kts
15-Nov-20 22:31 33.402763 -118.419585 54 1555ft 0kts
15-Nov-20 22:32 33.402763 -118.419585 54 1555ft 0kts
15-Nov-20 22:33 33.402763 -118.419585 54 1555ft 0kts
15-Nov-20 22:34 33.402763 -118.419585 54 1555ft 0kts
15-Nov-20 22:35 33.402763 -118.419585 54 1555ft 0kts
15-Nov-20 22:36 33.402763 -118.419585 54 1555ft 0kts
15-Nov-20 22:37 33.408871 -118.408521 55 1621ft 66kts
15-Nov-20 22:38 33.416747 -118.386127 68 1593ft 87kts
15-Nov-20 22:39 33.419491 -118.362587 82 2062ft 77kts
15-Nov-20 22:40 33.427439 -118.340771 63 2448ft 72kts
15-Nov-20 22:41 33.418659 -118.319666 82 2768ft 74kts
15-Nov-20 22:42 33.427783 -118.299211 52 3122ft 66kts
15-Nov-20 22:43 33.409766 -118.278315 130 2533ft 146kts
15-Nov-20 22:44 33.405143 -118.237757 89 2983ft 114kts
15-Nov-20 22:45 33.403446 -118.200879 94 3453ft 108kts
15-Nov-20 22:46 33.399796 -118.165565 94 3926ft 105kts
15-Nov-20 22:47 33.396311 -118.131109 95 4400ft 103kts
15-Nov-20 22:48 33.385731 -118.099487 120 4877ft 102kts
15-Nov-20 22:49 33.368985 -118.067685 120 4974ft 123kts
15-Nov-20 22:50 33.358302 -118.028360 99 4971ft 127kts
15-Nov-20 22:51 33.348401 -117.987676 113 4968ft 128kts
15-Nov-20 22:52 33.335519 -117.948156 99 4964ft 127kts
15-Nov-20 22:53 33.328712 -117.906484 99 4958ft 127kts
15-Nov-20 22:54 33.322060 -117.864836 99 4951ft 127kts
15-Nov-20 22:55 33.315509 -117.823169 99 4945ft 127kts
15-Nov-20 22:56 33.309050 -117.781684 99 4947ft 127kts
15-Nov-20 22:57 33.299525 -117.740915 106 4948ft 127kts
15-Nov-20 22:58 33.282074 -117.703819 120 4950ft 128kts
15-Nov-20 22:59 33.264967 -117.666729 103 4951ft 127kts
15-Nov-20 23:00 33.262759 -117.624731 90 4952ft 127kts
15-Nov-20 23:01 33.261790 -117.582559 90 4953ft 127kts
15-Nov-20 23:02 33.256989 -117.540668 97 4953ft 127kts
15-Nov-20 23:03 33.251121 -117.498868 98 4952ft 127kts
15-Nov-20 23:04 33.245219 -117.457036 97 4952ft 127kts
15-Nov-20 23:05 33.239392 -117.415253 97 4952ft 127kts
15-Nov-20 23:06 33.230387 -117.374381 114 4952ft 128kts
15-Nov-20 23:07 33.204114 -117.345592 140 4950ft 129kts
15-Nov-20 23:08 33.176101 -117.318414 140 4948ft 129kts
15-Nov-20 23:09 33.144133 -117.299848 176 4944ft 130kts
15-Nov-20 23:10 33.107990 -117.301632 183 4945ft 130kts
15-Nov-20 23:11 33.071759 -117.303865 182 4946ft 130kts
15-Nov-20 23:12 33.035361 -117.306299 183 4946ft 131kts
15-Nov-20 23:13 32.999761 -117.302956 154 4947ft 130kts
15-Nov-20 23:14 32.965597 -117.289032 174 4949ft 131kts
15-Nov-20 23:15 32.929492 -117.283282 161 4949ft 131kts
15-Nov-20 23:16 32.894588 -117.270603 162 4949ft 131kts
15-Nov-20 23:17 32.861408 -117.253757 147 4951ft 129kts
15-Nov-20 23:18 32.829241 -117.234918 167 4953ft 131kts
15-Nov-20 23:19 32.793308 -117.227292 168 4954ft 131kts
15-Nov-20 23:20 32.757322 -117.219660 169 4952ft 131kts
15-Nov-20 23:21 32.741125 -117.187000 82 4953ft 124kts
15-Nov-20 23:22 32.745231 -117.146086 80 4955ft 124kts
15-Nov-20 23:23 32.749583 -117.105161 81 4957ft 124kts
15-Nov-20 23:24 32.732874 -117.072111 138 4956ft 129kts
15-Nov-20 23:25 32.717680 -117.035995 93 4955ft 125kts
15-Nov-20 23:26 32.714336 -116.994945 94 4954ft 124kts
15-Nov-20 23:27 32.705954 -116.956319 104 4952ft 111kts
15-Nov-20 23:28 32.697942 -116.922316 103 4955ft 104kts
15-Nov-20 23:29 32.687396 -116.890502 111 4956ft 103kts
15-Nov-20 23:30 32.666578 -116.888408 245 4831ft 119kts
15-Nov-20 23:31 32.652962 -116.927090 247 4341ft 131kts
15-Nov-20 23:32 32.647330 -116.967713 284 3952ft 122kts
15-Nov-20 23:33 32.661757 -117.002318 303 3606ft 122kts
15-Nov-20 23:34 32.690871 -117.024511 305 2197ft 134kts
15-Nov-20 23:35 32.700732 -117.060672 292 1559ft 96kts
15-Nov-20 23:36 32.708266 -117.087278 291 1758ft 102kts
15-Nov-20 23:37 32.718184 -117.122906 286 1217ft 126kts
15-Nov-20 23:38 32.723594 -117.146434 280 878ft 69kts
15-Nov-20 23:39 32.725760 -117.155918 279 657ft 67kts
15-Nov-20 23:40 32.730755 -117.178176 286 82ft 67kts
15-Nov-20 23:41 32.733716 -117.188156 4 22ft 15kts
15-Nov-20 23:42 32.735100 -117.187894 253 22ft 5kts

Navigation Log

Ident Type
Flight plan parsing failed, navigation log unavailable